Chicago, IL

9:33 AM CST on February 25, 2018 (GMT -0600)
George Street | | Change Station

Elev 656 ft 41.94 °N, 87.88 °W | Updated 2 minutes ago

Mostly Cloudy
Mostly Cloudy
37.4 °F
Feels Like 32 °F
N
7.5
Wind Variable Wind from WSW
Gusts 13.7 mph

Today
High -- | Low -- °F
--% Chance of Precip.
Yesterday
High -- | Low -- °F
Precip. -- in
Pressure 29.85 in
Visibility 10.0 miles
Clouds Mostly Cloudy 2500 ft
Windchill 32 °F
Dew Point 30 °F
Humidity 74%
Rainfall 0.00 in
Snow Depth Not available.
6:32 AM 5:36 PM
Waxing Gibbous, 75% visible
METAR KORD 251451Z 26016G28KT 10SM BKN025 02/M04 A2983 RMK AO2 PK WND 24031/1440 SLP106 T00171039 51032 $
Pressure 29.85 in
Visibility 10.0 miles
Clouds Mostly Cloudy 2500 ft
Windchill 32 °F
Dew Point 30 °F
Humidity 74%
Rainfall 0.00 in
Snow Depth Not available.
6:32 AM 5:36 PM
Waxing Gibbous, 75% visible
METAR KORD 251451Z 26016G28KT 10SM BKN025 02/M04 A2983 RMK AO2 PK WND 24031/1440 SLP106 T00171039 51032 $

Get Severe Weather Alerts

Thanks for signing up!

Be on the lookout for a verification email in your inbox.

You'll start receiving the daily forecast at 6 AM.

×

10-Day Weather Forecast

Almanac

Astronomy

Feb. 25, 2018 Rise Set
Actual Time
Civil Twilight
Nautical Twilight
Astronomical Twilight
Moon
Length of Visible Light
Length of Day
Tomorrow will be .
, % of the Moon is Illuminated

Today's Extremes

State Highs State Lows

Community

WunderPhotos

Category 6

Welcome to Category 6. This is the collective home for Weather Underground's featured writeups by Dr. Jeff Masters (right), Bob Henson (left), Chris Burt, and other regular contributors.

Nearby

Air Quality

  Air Quality AQ Index Pollutant
Not available.

Snow Depth

Station Depth Elevation

Earthquake Activity

City Distance Mag. Time & Date
Minimum magnitude displayed is 2.5.

Coastal Water Temperatures

Place Temperature

Stations

Nearby Weather Stations

Station Location Temp. Windchill Dew Point Humidity Wind Precip. Elev Updated Type
                   

Watches & Warnings

There are currently no watches in effect.